createdAt,value
2019-05-17T00:00:49.661Z,83.24
2019-05-17T00:03:20.099Z,82.37
2019-05-17T00:05:50.527Z,82.81
2019-05-17T00:08:33.684Z,83.16
2019-05-17T00:10:53.205Z,82.42
2019-05-17T00:13:23.559Z,82.39
2019-05-17T00:15:56.455Z,82.81
2019-05-17T00:18:26.567Z,82.87
2019-05-17T00:20:57.159Z,83.53
2019-05-17T00:23:27.589Z,83.57
2019-05-17T00:25:58.024Z,83.16
2019-05-17T00:28:28.544Z,83.19
2019-05-17T00:30:58.976Z,84.16
2019-05-17T00:33:29.451Z,83.61
2019-05-17T00:35:59.810Z,84.74
2019-05-17T00:38:30.266Z,84.93
2019-05-17T00:41:00.721Z,83.26
2019-05-17T00:43:31.236Z,84.16
2019-05-17T00:46:01.550Z,83.02
2019-05-17T00:48:32.070Z,83.12
2019-05-17T00:51:02.609Z,83.61
2019-05-17T00:53:33.075Z,86.17
2019-05-17T00:56:03.439Z,86.03
2019-05-17T00:58:33.835Z,85.31
2019-05-17T01:01:04.155Z,84.04
2019-05-17T01:03:36.311Z,83.61
2019-05-17T01:06:06.688Z,83.41
2019-05-17T01:08:37.437Z,84.25
2019-05-17T01:11:07.878Z,83.42
2019-05-17T01:13:38.304Z,84.77
2019-05-17T01:16:08.723Z,84.45
2019-05-17T01:18:39.183Z,83.20
2019-05-17T01:21:09.684Z,83.67
2019-05-17T01:23:40.040Z,84.77
2019-05-17T01:26:10.484Z,86.54
2019-05-17T01:28:40.848Z,87.12
2019-05-17T01:31:11.170Z,86.42
2019-05-17T01:33:41.537Z,86.65
2019-05-17T01:36:11.967Z,84.78
2019-05-17T01:38:42.423Z,83.45
2019-05-17T01:41:12.753Z,85.41
2019-05-17T01:43:43.221Z,84.91
2019-05-17T01:46:13.651Z,85.01
2019-05-17T01:48:44.061Z,84.45
2019-05-17T01:51:16.750Z,85.02
2019-05-17T01:53:47.079Z,84.91
2019-05-17T01:56:17.527Z,84.44
2019-05-17T01:58:48.042Z,84.87
2019-05-17T02:01:18.473Z,83.56
2019-05-17T02:03:48.934Z,83.44
2019-05-17T02:06:19.360Z,83.39
2019-05-17T02:08:49.769Z,83.27
2019-05-17T02:11:20.170Z,85.36
2019-05-17T02:13:50.487Z,85.56
2019-05-17T02:16:20.907Z,85.15
2019-05-17T02:18:53.998Z,84.48
2019-05-17T02:21:24.476Z,85.15
2019-05-17T02:23:57.015Z,83.51
2019-05-17T02:26:27.083Z,83.53
2019-05-17T02:28:57.463Z,83.43
2019-05-17T02:31:28.745Z,83.28
2019-05-17T02:33:59.179Z,83.08
2019-05-17T02:36:29.617Z,83.59
2019-05-17T02:39:03.342Z,83.07
2019-05-17T02:41:33.292Z,83.48
2019-05-17T02:44:03.915Z,84.35
2019-05-17T02:46:34.298Z,83.65
2019-05-17T02:49:04.704Z,84.89
2019-05-17T02:51:35.106Z,83.11
2019-05-17T02:54:05.561Z,83.94
2019-05-17T02:56:36.033Z,85.30
2019-05-17T02:59:06.513Z,85.87
2019-05-17T03:01:36.987Z,85.48
2019-05-17T03:04:07.479Z,86.36
2019-05-17T03:06:37.943Z,86.93
2019-05-17T03:09:08.430Z,85.63
2019-05-17T03:11:38.837Z,85.56
2019-05-17T03:14:12.473Z,85.18
2019-05-17T03:16:43.101Z,84.27
2019-05-17T03:19:13.835Z,83.93
2019-05-17T03:21:44.274Z,85.79
2019-05-17T03:24:14.762Z,84.68
2019-05-17T03:26:45.211Z,84.84
2019-05-17T03:29:15.590Z,83.92
2019-05-17T03:31:57.489Z,85.62
2019-05-17T03:34:18.911Z,85.32
2019-05-17T03:36:49.270Z,84.77
2019-05-17T03:39:22.507Z,84.56
2019-05-17T03:41:53.552Z,84.16
2019-05-17T03:44:23.846Z,83.60
2019-05-17T03:46:54.274Z,86.32
2019-05-17T03:49:24.784Z,85.36
2019-05-17T03:51:55.288Z,85.95
2019-05-17T03:54:25.685Z,86.03
2019-05-17T03:56:56.106Z,85.63
2019-05-17T03:59:26.677Z,86.05
2019-05-17T04:01:57.078Z,85.84
2019-05-17T04:04:27.476Z,85.42
2019-05-17T04:06:57.851Z,86.29
2019-05-17T04:09:28.295Z,86.44
2019-05-17T04:11:58.936Z,86.56
2019-05-17T04:14:33.326Z,86.27
2019-05-17T04:17:03.006Z,86.75
2019-05-17T04:19:33.898Z,87.54
2019-05-17T04:22:04.403Z,86.86
2019-05-17T04:24:34.654Z,87.59
2019-05-17T04:27:05.079Z,88.32
2019-05-17T04:29:35.490Z,89.83
2019-05-17T04:32:05.880Z,89.84
2019-05-17T04:34:36.297Z,90.50
2019-05-17T04:37:06.699Z,90.59
2019-05-17T04:39:37.070Z,90.07
2019-05-17T04:42:07.581Z,89.73
2019-05-17T04:44:37.853Z,89.68
2019-05-17T04:47:08.287Z,89.29
2019-05-17T04:49:38.773Z,89.00
2019-05-17T04:52:09.205Z,88.63
2019-05-17T04:54:42.289Z,88.97
2019-05-17T04:57:13.099Z,88.73
2019-05-17T04:59:43.773Z,88.60
2019-05-17T05:02:14.320Z,88.17
2019-05-17T05:04:44.782Z,87.97
2019-05-17T05:07:15.580Z,87.64
2019-05-17T05:09:46.239Z,87.33
2019-05-17T05:12:16.709Z,86.98
2019-05-17T05:14:47.061Z,86.58
2019-05-17T05:17:17.447Z,86.47
2019-05-17T05:19:47.833Z,86.32
2019-05-17T05:22:18.390Z,85.42
2019-05-17T05:24:48.793Z,85.34
2019-05-17T05:27:19.313Z,84.20
2019-05-17T05:29:52.047Z,84.50
2019-05-17T05:32:22.129Z,83.84
2019-05-17T05:34:52.743Z,83.13
2019-05-17T05:37:23.353Z,82.73
2019-05-17T05:39:54.666Z,83.13
2019-05-17T05:42:25.184Z,82.85
2019-05-17T05:44:55.694Z,82.78
2019-05-17T05:47:25.970Z,82.25
2019-05-17T05:49:56.427Z,81.81
2019-05-17T05:52:45.924Z,81.93
2019-05-17T05:55:16.340Z,81.58
2019-05-17T05:57:46.947Z,81.50
2019-05-17T06:00:18.318Z,80.58
2019-05-17T06:02:48.661Z,79.92
2019-05-17T06:05:21.792Z,79.42
2019-05-17T06:07:52.209Z,78.78
2019-05-17T06:10:22.872Z,77.76
2019-05-17T06:12:53.259Z,77.20
2019-05-17T06:15:23.825Z,77.64
2019-05-17T06:17:54.287Z,77.70
2019-05-17T06:20:24.700Z,77.35
2019-05-17T06:22:55.107Z,76.49
2019-05-17T06:25:25.572Z,77.35
2019-05-17T06:27:55.912Z,77.12
2019-05-17T06:30:26.511Z,75.14
2019-05-17T06:32:57.010Z,75.03
2019-05-17T06:35:27.488Z,76.10
2019-05-17T06:37:58.317Z,74.95
2019-05-17T06:40:28.751Z,74.34
2019-05-17T06:43:04.194Z,74.17
2019-05-17T06:45:33.071Z,73.67
2019-05-17T06:48:03.549Z,72.83
2019-05-17T06:50:33.970Z,73.35
2019-05-17T06:53:04.425Z,73.03
2019-05-17T06:55:34.692Z,72.34
2019-05-17T06:58:05.066Z,71.88
2019-05-17T07:00:35.529Z,69.12
2019-05-17T07:03:05.994Z,67.30
2019-05-17T07:05:40.207Z,66.97
2019-05-17T07:08:10.839Z,65.70
2019-05-17T07:10:41.453Z,64.22
2019-05-17T07:13:11.991Z,62.42
2019-05-17T07:15:47.276Z,64.05
2019-05-17T07:18:14.532Z,63.57
2019-05-17T07:20:45.008Z,62.88
2019-05-17T07:23:15.266Z,61.92
2019-05-17T07:25:45.722Z,62.11
2019-05-17T07:28:16.048Z,62.03
2019-05-17T07:30:46.474Z,62.78
2019-05-17T07:33:16.932Z,62.68
2019-05-17T07:35:47.416Z,61.48
2019-05-17T07:38:19.913Z,61.12
2019-05-17T07:40:50.355Z,60.79
2019-05-17T07:43:21.014Z,59.85
2019-05-17T07:45:51.409Z,58.43
2019-05-17T07:48:21.866Z,57.35
2019-05-17T07:50:52.260Z,56.57
2019-05-17T07:53:22.733Z,54.68
2019-05-17T07:55:53.136Z,54.23
2019-05-17T07:58:23.695Z,54.95
2019-05-17T08:00:54.150Z,56.68
2019-05-17T08:03:25.058Z,55.04
2019-05-17T08:05:55.634Z,54.96
2019-05-17T08:08:26.148Z,53.53
2019-05-17T08:10:56.535Z,52.76
2019-05-17T08:13:31.313Z,52.74
2019-05-17T08:15:59.594Z,51.65
2019-05-17T08:18:30.092Z,51.57
2019-05-17T08:21:00.584Z,51.88
2019-05-17T08:23:31.027Z,50.26
2019-05-17T08:26:01.531Z,52.16
2019-05-17T08:28:31.978Z,50.34
2019-05-17T08:31:02.461Z,49.20
2019-05-17T08:33:33.031Z,49.67
2019-05-17T08:36:03.487Z,47.74
2019-05-17T08:38:33.935Z,48.35
2019-05-17T08:41:04.349Z,48.20
2019-05-17T08:43:43.163Z,47.96
2019-05-17T08:46:06.987Z,46.75
2019-05-17T08:48:37.473Z,48.05
2019-05-17T08:51:10.578Z,48.10
2019-05-17T08:53:40.152Z,47.73
2019-05-17T08:56:10.577Z,47.46
2019-05-17T08:58:41.111Z,47.67
2019-05-17T09:01:11.542Z,46.96
2019-05-17T09:03:42.001Z,47.42
2019-05-17T09:06:12.884Z,48.08
2019-05-17T09:08:43.435Z,45.95
2019-05-17T09:11:13.893Z,45.53
2019-05-17T09:13:55.596Z,45.75
2019-05-17T09:16:16.462Z,45.68
2019-05-17T09:18:47.171Z,44.38
2019-05-17T09:21:17.681Z,44.38
2019-05-17T09:23:50.218Z,44.49
2019-05-17T09:26:20.371Z,43.51
2019-05-17T09:28:50.678Z,42.68
2019-05-17T09:31:21.063Z,42.31
2019-05-17T09:33:51.559Z,41.60
2019-05-17T09:36:21.944Z,41.73
2019-05-17T09:38:52.406Z,41.05
2019-05-17T09:41:22.651Z,41.62
2019-05-17T09:43:53.096Z,41.45
2019-05-17T09:46:23.421Z,41.98
2019-05-17T09:48:53.828Z,42.21
2019-05-17T09:51:24.387Z,41.84
2019-05-17T09:53:54.675Z,40.37
2019-05-17T09:56:25.099Z,41.50
2019-05-17T09:58:55.619Z,40.78
2019-05-17T10:01:26.155Z,40.90
2019-05-17T10:03:56.674Z,41.30
2019-05-17T10:06:27.136Z,41.39
2019-05-17T10:09:00.054Z,40.46
2019-05-17T10:11:30.777Z,39.72
2019-05-17T10:14:01.531Z,39.29
2019-05-17T10:16:31.935Z,38.99
2019-05-17T10:19:02.493Z,39.58
2019-05-17T10:21:32.949Z,39.34
2019-05-17T10:24:03.407Z,40.29
2019-05-17T10:26:33.794Z,39.52
2019-05-17T10:29:04.378Z,38.39
2019-05-17T10:31:34.772Z,38.44
2019-05-17T10:34:05.214Z,37.83
2019-05-17T10:36:35.746Z,36.54
2019-05-17T10:39:09.851Z,35.99
2019-05-17T10:41:40.620Z,37.43
2019-05-17T10:44:11.270Z,36.91
2019-05-17T10:46:41.746Z,37.72
2019-05-17T10:49:12.114Z,37.35
2019-05-17T10:51:42.537Z,35.69
2019-05-17T10:54:13.022Z,35.77
2019-05-17T10:56:43.495Z,34.50
2019-05-17T10:59:14.001Z,35.30
2019-05-17T11:01:44.455Z,33.56
2019-05-17T11:04:14.863Z,33.60
2019-05-17T11:06:45.385Z,33.88
2019-05-17T11:09:15.862Z,34.11
2019-05-17T11:11:46.181Z,33.63
2019-05-17T11:14:16.651Z,33.14
2019-05-17T11:16:47.097Z,32.98
2019-05-17T11:19:17.534Z,32.01
2019-05-17T11:21:48.053Z,31.23
2019-05-17T11:24:18.455Z,30.73
2019-05-17T11:26:48.894Z,31.93
2019-05-17T11:29:19.272Z,31.24
2019-05-17T11:31:49.731Z,31.73
2019-05-17T11:34:20.175Z,32.36
2019-05-17T11:36:50.589Z,31.57
2019-05-17T11:39:21.081Z,31.21
2019-05-17T11:41:51.457Z,31.63
2019-05-17T11:44:21.897Z,31.71
2019-05-17T11:46:52.266Z,31.95
2019-05-17T11:49:22.747Z,31.74
2019-05-17T11:51:53.252Z,32.12
2019-05-17T11:54:23.666Z,30.32
2019-05-17T11:56:54.129Z,30.48
2019-05-17T11:59:24.597Z,30.20
2019-05-17T12:01:54.975Z,29.52
2019-05-17T12:04:25.459Z,29.76
2019-05-17T12:06:55.925Z,30.75
2019-05-17T12:09:36.864Z,29.47
2019-05-17T12:11:58.398Z,30.59
2019-05-17T12:14:28.861Z,29.93
2019-05-17T12:16:59.232Z,28.74
2019-05-17T12:19:29.686Z,28.86
2019-05-17T12:22:00.243Z,28.67
2019-05-17T12:24:30.597Z,27.57
2019-05-17T12:27:01.030Z,27.29
2019-05-17T12:29:31.463Z,26.60
2019-05-17T12:32:01.922Z,27.16
2019-05-17T12:34:32.347Z,27.23
2019-05-17T12:37:02.769Z,27.21
2019-05-17T12:39:33.311Z,27.29
2019-05-17T12:42:03.844Z,26.89
2019-05-17T12:44:37.195Z,25.23
2019-05-17T12:47:06.499Z,25.34
2019-05-17T12:49:36.864Z,23.69
2019-05-17T12:52:07.356Z,24.17
2019-05-17T12:54:37.854Z,25.08
2019-05-17T12:57:08.283Z,23.38
2019-05-17T12:59:39.129Z,23.42
2019-05-17T13:02:12.310Z,23.35
2019-05-17T13:04:41.642Z,21.28
2019-05-17T13:07:12.116Z,20.47
2019-05-17T13:09:42.625Z,20.26
2019-05-17T13:12:13.016Z,20.43
2019-05-17T13:14:43.460Z,21.30
2019-05-17T13:17:14.010Z,20.58
2019-05-17T13:19:44.497Z,20.29
2019-05-17T13:22:14.848Z,20.61
2019-05-17T13:24:45.326Z,20.95
2019-05-17T13:27:15.779Z,21.04
2019-05-17T13:29:46.249Z,20.30
2019-05-17T13:32:16.733Z,20.51
2019-05-17T13:34:47.149Z,20.12
2019-05-17T13:37:17.486Z,21.87
2019-05-17T13:39:47.980Z,23.02
2019-05-17T13:42:18.444Z,23.47
2019-05-17T13:44:48.853Z,25.28
2019-05-17T13:47:19.274Z,27.09
2019-05-17T13:49:49.600Z,28.01
2019-05-17T13:52:20.137Z,28.48
2019-05-17T13:54:50.557Z,29.27
2019-05-17T13:57:21.113Z,30.71
2019-05-17T13:59:51.564Z,31.13
2019-05-17T14:02:21.931Z,31.54
2019-05-17T14:04:52.356Z,32.04
2019-05-17T14:07:22.832Z,32.47
2019-05-17T14:09:53.234Z,33.49
2019-05-17T14:12:23.658Z,34.75
2019-05-17T14:14:54.079Z,34.39
2019-05-17T14:17:24.484Z,34.65
2019-05-17T14:19:55.066Z,35.24
2019-05-17T14:22:25.629Z,36.14
2019-05-17T14:24:56.076Z,34.91
2019-05-17T14:27:26.511Z,34.74
2019-05-17T14:29:56.980Z,34.66
2019-05-17T14:32:27.306Z,34.57
2019-05-17T14:34:57.717Z,33.83
2019-05-17T14:37:28.186Z,32.01
2019-05-17T14:39:58.610Z,31.18
2019-05-17T14:42:29.047Z,30.51
2019-05-17T14:44:59.470Z,31.90
2019-05-17T14:47:29.935Z,30.73
2019-05-17T14:50:00.417Z,31.12
2019-05-17T14:52:30.825Z,30.85
2019-05-17T14:55:01.320Z,30.64
2019-05-17T14:57:31.759Z,30.65
2019-05-17T15:00:02.247Z,31.43
2019-05-17T15:02:32.662Z,31.79
2019-05-17T15:05:03.343Z,31.34
2019-05-17T15:07:33.887Z,31.11
2019-05-17T15:10:04.570Z,31.27
2019-05-17T15:12:35.025Z,31.94
2019-05-17T15:15:05.622Z,32.36
2019-05-17T15:17:36.026Z,33.02
2019-05-17T15:20:07.954Z,32.51
2019-05-17T15:22:38.470Z,32.93
2019-05-17T15:25:09.383Z,33.54
2019-05-17T15:27:39.739Z,33.65
2019-05-17T15:30:10.690Z,32.91
2019-05-17T15:32:41.038Z,32.39
2019-05-17T15:35:11.516Z,31.41
2019-05-17T15:37:41.961Z,31.75
2019-05-17T15:40:12.656Z,31.80
2019-05-17T15:42:44.602Z,32.44
2019-05-17T15:45:15.416Z,32.15
2019-05-17T15:47:45.921Z,31.38
2019-05-17T15:50:18.003Z,29.94
2019-05-17T15:52:48.455Z,29.79
2019-05-17T15:55:19.386Z,30.89
2019-05-17T15:57:49.865Z,31.24
2019-05-17T16:00:20.456Z,31.51
2019-05-17T16:02:50.899Z,30.76
2019-05-17T16:05:21.310Z,30.01
2019-05-17T16:07:51.608Z,31.29
2019-05-17T16:10:22.163Z,32.36
2019-05-17T16:13:02.593Z,32.22
2019-05-17T16:15:24.739Z,32.72
2019-05-17T16:17:55.011Z,32.98
2019-05-17T16:20:25.481Z,34.20
2019-05-17T16:22:56.030Z,34.28
2019-05-17T16:25:26.467Z,35.19
2019-05-17T16:27:56.904Z,34.73
2019-05-17T16:30:27.326Z,34.48
2019-05-17T16:32:57.798Z,34.57
2019-05-17T16:35:28.275Z,34.99
2019-05-17T16:37:58.800Z,34.15
2019-05-17T16:40:29.327Z,34.33
2019-05-17T16:42:59.748Z,34.08
2019-05-17T16:45:30.193Z,32.50
2019-05-17T16:48:00.625Z,31.47
2019-05-17T16:50:30.985Z,31.11
2019-05-17T16:53:05.808Z,31.54
2019-05-17T16:55:33.911Z,30.76
2019-05-17T16:58:04.401Z,30.27
2019-05-17T17:00:37.000Z,30.46
2019-05-17T17:03:07.736Z,30.96
2019-05-17T17:05:38.159Z,31.36
2019-05-17T17:08:08.551Z,31.56
2019-05-17T17:10:39.019Z,31.74
2019-05-17T17:13:09.434Z,32.09
2019-05-17T17:15:39.834Z,33.62
2019-05-17T17:18:10.268Z,33.80
2019-05-17T17:20:40.726Z,34.54
2019-05-17T17:23:11.141Z,34.73
2019-05-17T17:25:41.612Z,35.20
2019-05-17T17:28:12.082Z,37.07
2019-05-17T17:30:42.514Z,37.11
2019-05-17T17:33:12.981Z,37.82
2019-05-17T17:35:43.458Z,38.38
2019-05-17T17:38:13.886Z,39.11
2019-05-17T17:40:44.322Z,39.89
2019-05-17T17:43:16.299Z,39.63
2019-05-17T17:45:46.794Z,40.63
2019-05-17T17:48:17.230Z,40.82
2019-05-17T17:50:47.705Z,40.90
2019-05-17T17:53:18.135Z,41.08
2019-05-17T17:55:48.611Z,41.23
2019-05-17T17:58:19.104Z,41.28
2019-05-17T18:00:49.484Z,42.27
2019-05-17T18:03:19.858Z,41.83
2019-05-17T18:05:50.305Z,42.86
2019-05-17T18:08:20.679Z,42.57
2019-05-17T18:10:51.139Z,43.83
2019-05-17T18:13:21.612Z,46.46
2019-05-17T18:15:51.955Z,43.54
2019-05-17T18:18:22.210Z,44.01
2019-05-17T18:20:52.708Z,43.93
2019-05-17T18:23:23.672Z,45.91
2019-05-17T18:25:54.198Z,46.24
2019-05-17T18:28:24.573Z,47.38
2019-05-17T18:30:55.055Z,46.01
2019-05-17T18:33:25.432Z,46.42
2019-05-17T18:35:55.776Z,46.86
2019-05-17T18:38:29.147Z,46.25
2019-05-17T18:40:59.628Z,47.12
2019-05-17T18:43:30.062Z,46.36
2019-05-17T18:46:00.454Z,48.69
2019-05-17T18:48:30.944Z,47.56
2019-05-17T18:51:01.355Z,48.15
2019-05-17T18:53:31.806Z,48.99
2019-05-17T18:56:02.282Z,49.48
2019-05-17T18:58:32.712Z,49.49
2019-05-17T19:01:03.164Z,48.57
2019-05-17T19:03:33.589Z,49.80
2019-05-17T19:06:04.083Z,50.71
2019-05-17T19:08:34.606Z,51.03
2019-05-17T19:11:05.072Z,49.31
2019-05-17T19:13:35.425Z,49.10
2019-05-17T19:16:05.864Z,49.37
2019-05-17T19:18:36.375Z,49.58
2019-05-17T19:21:06.845Z,50.28
2019-05-17T19:23:37.249Z,49.62
2019-05-17T19:26:07.613Z,50.07
2019-05-17T19:28:37.981Z,49.46
2019-05-17T19:31:08.435Z,49.34
2019-05-17T19:33:38.895Z,49.86
2019-05-17T19:36:09.336Z,50.57
2019-05-17T19:38:39.727Z,52.22
2019-05-17T19:41:10.159Z,51.75
2019-05-17T19:43:40.554Z,52.99
2019-05-17T19:46:11.010Z,50.96
2019-05-17T19:48:41.358Z,51.99
2019-05-17T19:51:11.797Z,50.45
2019-05-17T19:53:42.199Z,50.48
2019-05-17T19:56:12.659Z,50.14
2019-05-17T19:58:42.973Z,52.55
2019-05-17T20:01:13.350Z,51.83
2019-05-17T20:03:43.777Z,52.33
2019-05-17T20:06:14.177Z,54.55
2019-05-17T20:08:44.567Z,51.98
2019-05-17T20:11:14.978Z,54.96
2019-05-17T20:13:45.363Z,53.29
2019-05-17T20:16:15.846Z,54.62
2019-05-17T20:18:46.165Z,57.20
2019-05-17T20:21:16.630Z,55.95
2019-05-17T20:23:47.120Z,55.28
2019-05-17T20:26:17.500Z,56.41
2019-05-17T20:28:47.941Z,57.92
2019-05-17T20:31:18.298Z,56.80
2019-05-17T20:33:48.784Z,59.26
2019-05-17T20:36:19.205Z,56.89
2019-05-17T20:38:49.610Z,57.64
2019-05-17T20:41:39.120Z,58.01
2019-05-17T20:44:09.573Z,57.71
2019-05-17T20:46:39.915Z,57.33
2019-05-17T20:49:10.201Z,58.20
2019-05-17T20:51:40.722Z,59.05
2019-05-17T20:54:11.119Z,56.51
2019-05-17T20:56:41.589Z,57.80
2019-05-17T20:59:12.004Z,56.88
2019-05-17T21:01:42.489Z,58.90
2019-05-17T21:04:12.878Z,59.18
2019-05-17T21:06:43.209Z,58.64
2019-05-17T21:09:13.531Z,58.59
2019-05-17T21:11:43.984Z,59.92
2019-05-17T21:14:14.388Z,58.94
2019-05-17T21:16:44.761Z,59.76
2019-05-17T21:19:15.237Z,59.62
2019-05-17T21:21:45.655Z,60.17
2019-05-17T21:24:16.170Z,57.72
2019-05-17T21:26:46.700Z,59.56
2019-05-17T21:29:17.174Z,58.57
2019-05-17T21:31:47.536Z,61.01
2019-05-17T21:34:18.015Z,60.61
2019-05-17T21:36:48.447Z,60.01
2019-05-17T21:39:21.452Z,59.00
2019-05-17T21:41:51.095Z,59.61
2019-05-17T21:44:21.577Z,58.82
2019-05-17T21:47:03.801Z,58.34
2019-05-17T21:49:24.175Z,58.07
2019-05-17T21:51:54.652Z,57.68
2019-05-17T21:54:24.983Z,58.50
2019-05-17T21:56:55.363Z,58.50
2019-05-17T21:59:25.835Z,58.92
2019-05-17T22:01:57.026Z,59.13
2019-05-17T22:04:27.346Z,58.94
2019-05-17T22:06:57.811Z,58.97
2019-05-17T22:09:28.244Z,59.28
2019-05-17T22:12:02.130Z,59.17
2019-05-17T22:14:32.519Z,60.00
2019-05-17T22:17:02.940Z,60.36
2019-05-17T22:19:33.304Z,59.32
2019-05-17T22:22:03.682Z,60.15
2019-05-17T22:24:34.074Z,61.20
2019-05-17T22:27:04.531Z,60.93
2019-05-17T22:29:34.863Z,60.75
2019-05-17T22:32:05.298Z,61.57
2019-05-17T22:34:35.641Z,61.18
2019-05-17T22:37:07.327Z,61.70
2019-05-17T22:39:37.824Z,61.02
2019-05-17T22:42:08.243Z,61.66
2019-05-17T22:44:38.695Z,62.10
2019-05-17T22:47:09.197Z,62.59
2019-05-17T22:49:39.547Z,62.47
2019-05-17T22:52:10.006Z,62.86
2019-05-17T22:54:40.409Z,61.23
2019-05-17T22:57:10.797Z,62.39
2019-05-17T22:59:41.184Z,61.87
2019-05-17T23:02:11.511Z,62.48
2019-05-17T23:04:42.026Z,62.70
2019-05-17T23:07:12.503Z,62.27
2019-05-17T23:09:42.871Z,63.17
2019-05-17T23:12:13.343Z,63.17
2019-05-17T23:14:43.672Z,63.81
2019-05-17T23:17:14.155Z,62.61
2019-05-17T23:19:44.699Z,63.76
2019-05-17T23:22:15.137Z,64.06
2019-05-17T23:24:45.742Z,64.09
2019-05-17T23:27:16.192Z,64.55
2019-05-17T23:29:46.575Z,64.80
2019-05-17T23:32:16.861Z,65.52
2019-05-17T23:34:48.168Z,66.28
2019-05-17T23:37:18.625Z,66.78
2019-05-17T23:39:49.471Z,68.17
2019-05-17T23:42:19.850Z,68.08
2019-05-17T23:44:50.307Z,68.31
2019-05-17T23:47:20.734Z,67.70
2019-05-17T23:49:51.077Z,67.61
2019-05-17T23:52:21.489Z,67.63
2019-05-17T23:54:51.825Z,67.67
2019-05-17T23:57:22.273Z,68.97
2019-05-17T23:59:52.713Z,69.67
